Terminal Aerodrome Forecast
Issued by NWS

Home | Current Version | Previous Version | Text Only | Print | Product List | Glossary On
Versions: 1 2 3 4 5 6 7 8 9 10 11 12 13 14 15 16
000
FTAK31 PAJN 201700
TAFAYA
TAF
PAYA 201723Z 2018/2118 13016G28KT P6SM SCT015 BKN035 OVC060
      WS020/13045KT
      TEMPO 2018/2022 6SM -RA BKN020
     FM202300 VRB05KT P6SM FEW030 SCT050
     FM210600 00000KT P6SM FEW070
      AMD LTD TO CLD VIS AND WIND 2101/2110=

USA.gov is the U.S. government's official web portal to all federal, state and local government web resources and services.